createdAt,value
2022-08-03T00:01:51.658Z,36.79
2022-08-03T00:04:18.308Z,36.38
2022-08-03T00:06:44.792Z,36.86
2022-08-03T00:09:11.940Z,37.11
2022-08-03T00:11:38.867Z,38.44
2022-08-03T00:14:06.255Z,38.96
2022-08-03T00:16:34.460Z,38.57
2022-08-03T00:19:02.481Z,38.66
2022-08-03T00:21:29.503Z,38.70
2022-08-03T00:23:56.178Z,38.02
2022-08-03T00:26:22.995Z,38.24
2022-08-03T00:28:49.986Z,37.60
2022-08-03T00:31:16.768Z,37.82
2022-08-03T00:33:58.008Z,38.17
2022-08-03T00:36:26.891Z,38.01
2022-08-03T00:38:53.500Z,38.80
2022-08-03T00:41:20.063Z,39.63
2022-08-03T00:43:46.714Z,39.69
2022-08-03T00:46:16.436Z,40.02
2022-08-03T00:48:47.243Z,39.56
2022-08-03T00:51:14.072Z,39.23
2022-08-03T00:53:41.177Z,39.20
2022-08-03T00:56:07.791Z,38.76
2022-08-03T00:58:34.437Z,38.51
2022-08-03T01:01:01.020Z,38.74
2022-08-03T01:03:27.743Z,38.51
2022-08-03T01:06:16.122Z,38.44
2022-08-03T01:09:02.478Z,38.44
2022-08-03T01:12:00.991Z,38.63
2022-08-03T01:14:44.453Z,38.50
2022-08-03T01:17:33.910Z,38.43
2022-08-03T01:20:10.148Z,38.56
2022-08-03T01:23:19.758Z,38.40
2022-08-03T01:26:00.219Z,38.62
2022-08-03T01:28:47.846Z,38.31
2022-08-03T01:31:21.464Z,38.50
2022-08-03T01:33:57.145Z,38.92
2022-08-03T01:36:32.098Z,40.08
2022-08-03T01:39:04.988Z,40.93
2022-08-03T01:41:42.338Z,41.93
2022-08-03T01:44:29.239Z,42.62
2022-08-03T01:47:03.270Z,42.43
2022-08-03T01:49:40.473Z,42.09
2022-08-03T01:52:08.857Z,41.34
2022-08-03T01:54:41.461Z,41.25
2022-08-03T01:57:10.372Z,41.15
2022-08-03T01:59:39.308Z,40.49
2022-08-03T02:02:29.767Z,39.97
2022-08-03T02:04:59.981Z,40.24
2022-08-03T02:07:29.163Z,40.38
2022-08-03T02:09:58.360Z,40.69
2022-08-03T02:12:28.619Z,40.23
2022-08-03T02:14:56.572Z,39.76
2022-08-03T02:17:39.088Z,40.08
2022-08-03T02:20:10.875Z,39.71
2022-08-03T02:22:41.349Z,39.49
2022-08-03T02:25:13.593Z,39.44
2022-08-03T02:27:44.517Z,39.13
2022-08-03T02:30:13.207Z,39.13
2022-08-03T02:32:44.064Z,39.18
2022-08-03T02:35:16.002Z,38.69
2022-08-03T02:37:49.599Z,39.10
2022-08-03T02:40:20.020Z,39.31
2022-08-03T02:42:51.218Z,39.23
2022-08-03T02:45:20.854Z,39.11
2022-08-03T02:47:54.267Z,39.26
2022-08-03T02:50:24.210Z,39.37
2022-08-03T02:52:52.692Z,39.50
2022-08-03T02:55:21.743Z,39.21
2022-08-03T02:57:50.500Z,39.42
2022-08-03T03:00:19.672Z,39.53
2022-08-03T03:03:00.727Z,39.69
2022-08-03T03:05:54.567Z,39.44
2022-08-03T03:08:20.657Z,39.71
2022-08-03T03:10:53.274Z,39.89
2022-08-03T03:13:23.503Z,39.72
2022-08-03T03:15:51.884Z,40.09
2022-08-03T03:18:22.930Z,40.32
2022-08-03T03:20:52.406Z,40.43
2022-08-03T03:23:24.712Z,40.63
2022-08-03T03:25:53.519Z,40.58
2022-08-03T03:28:20.256Z,40.80
2022-08-03T03:30:53.056Z,41.23
2022-08-03T03:33:21.336Z,41.12
2022-08-03T03:35:48.761Z,41.21
2022-08-03T03:38:15.485Z,41.53
2022-08-03T03:40:42.748Z,41.45
2022-08-03T03:43:11.739Z,41.35
2022-08-03T03:45:41.434Z,41.35
2022-08-03T03:48:08.361Z,41.63
2022-08-03T03:50:37.170Z,41.88
2022-08-03T03:53:04.572Z,41.98
2022-08-03T03:55:31.105Z,41.96
2022-08-03T03:57:57.607Z,41.76
2022-08-03T04:00:24.114Z,42.41
2022-08-03T04:02:50.646Z,42.05
2022-08-03T04:05:17.162Z,42.08
2022-08-03T04:07:57.562Z,42.52
2022-08-03T04:10:31.529Z,42.41
2022-08-03T04:13:02.184Z,42.48
2022-08-03T04:15:32.167Z,42.05
2022-08-03T04:18:01.283Z,42.42
2022-08-03T04:20:32.353Z,42.71
2022-08-03T04:23:02.493Z,42.59
2022-08-03T04:25:33.985Z,42.53
2022-08-03T04:28:09.749Z,42.52
2022-08-03T04:30:51.343Z,42.52
2022-08-03T04:33:20.110Z,42.75
2022-08-03T04:36:01.799Z,42.84
2022-08-03T04:38:32.905Z,43.44
2022-08-03T04:41:01.360Z,43.20
2022-08-03T04:43:30.518Z,43.33
2022-08-03T04:45:59.930Z,43.36
2022-08-03T04:48:27.207Z,43.35
2022-08-03T04:50:54.606Z,43.60
2022-08-03T04:53:21.553Z,43.62
2022-08-03T04:55:48.210Z,43.67
2022-08-03T04:58:14.820Z,43.76
2022-08-03T05:00:41.408Z,43.51
2022-08-03T05:03:23.505Z,43.58
2022-08-03T05:05:53.014Z,44.41
2022-08-03T05:08:20.654Z,44.99
2022-08-03T05:10:54.679Z,44.96
2022-08-03T05:13:21.180Z,44.54
2022-08-03T05:15:47.690Z,44.47
2022-08-03T05:18:14.542Z,44.27
2022-08-03T05:20:41.495Z,44.27
2022-08-03T05:23:08.070Z,44.01
2022-08-03T05:25:34.648Z,43.97
2022-08-03T05:28:01.141Z,43.71
2022-08-03T05:30:33.827Z,44.27
2022-08-03T05:33:02.176Z,44.17
2022-08-03T05:36:00.984Z,44.63
2022-08-03T05:38:15.277Z,44.42
2022-08-03T05:40:57.247Z,44.61
2022-08-03T05:43:37.243Z,44.70
2022-08-03T05:46:12.190Z,44.63
2022-08-03T05:48:39.468Z,44.89
2022-08-03T05:51:06.056Z,44.50
2022-08-03T05:53:35.573Z,44.66
2022-08-03T05:56:03.635Z,44.54
2022-08-03T05:58:42.725Z,44.20
2022-08-03T06:01:09.270Z,44.25
2022-08-03T06:03:35.787Z,44.84
2022-08-03T06:06:02.272Z,44.56
2022-08-03T06:08:28.909Z,44.65
2022-08-03T06:10:55.433Z,44.74
2022-08-03T06:13:21.977Z,45.97
2022-08-03T06:15:48.522Z,46.02
2022-08-03T06:18:15.096Z,46.07
2022-08-03T06:20:41.624Z,46.20
2022-08-03T06:23:08.116Z,45.56
2022-08-03T06:25:42.990Z,45.83
2022-08-03T06:28:18.939Z,45.06
2022-08-03T06:30:55.589Z,44.99
2022-08-03T06:33:22.122Z,45.04
2022-08-03T06:35:48.618Z,44.81
2022-08-03T06:38:15.164Z,45.34
2022-08-03T06:40:41.739Z,45.34
2022-08-03T06:43:12.506Z,45.77
2022-08-03T06:45:39.384Z,45.21
2022-08-03T06:48:11.664Z,44.90
2022-08-03T06:50:41.207Z,45.37
2022-08-03T06:53:09.089Z,45.62
2022-08-03T06:55:44.739Z,45.62
2022-08-03T06:58:11.256Z,45.36
2022-08-03T07:00:37.763Z,45.81
2022-08-03T07:03:04.289Z,46.03
2022-08-03T07:05:30.814Z,45.68
2022-08-03T07:07:57.761Z,46.14
2022-08-03T07:10:24.438Z,46.29
2022-08-03T07:12:56.062Z,46.55
2022-08-03T07:15:53.673Z,46.50
2022-08-03T07:18:09.765Z,46.51
2022-08-03T07:20:36.268Z,46.10
2022-08-03T07:23:02.771Z,45.32
2022-08-03T07:25:29.291Z,44.85
2022-08-03T07:27:55.821Z,44.41
2022-08-03T07:30:23.046Z,43.92
2022-08-03T07:32:50.709Z,44.00
2022-08-03T07:35:24.451Z,43.31
2022-08-03T07:37:54.412Z,42.92
2022-08-03T07:40:21.364Z,43.12
2022-08-03T07:42:47.928Z,43.03
2022-08-03T07:45:18.740Z,42.75
2022-08-03T07:47:53.061Z,42.06
2022-08-03T07:50:21.204Z,41.67
2022-08-03T07:52:48.210Z,41.64
2022-08-03T07:55:15.704Z,41.15
2022-08-03T07:57:42.552Z,41.58
2022-08-03T08:00:15.934Z,41.46
2022-08-03T08:02:43.399Z,41.68
2022-08-03T08:05:10.110Z,40.98
2022-08-03T08:07:37.255Z,40.96
2022-08-03T08:10:05.865Z,40.80
2022-08-03T08:12:49.998Z,40.74
2022-08-03T08:15:16.779Z,40.59
2022-08-03T08:17:47.561Z,40.06
2022-08-03T08:20:27.971Z,40.35
2022-08-03T08:22:57.001Z,40.06
2022-08-03T08:25:23.800Z,39.81
2022-08-03T08:28:31.451Z,39.36
2022-08-03T08:30:37.230Z,39.03
2022-08-03T08:33:03.754Z,39.29
2022-08-03T08:35:30.441Z,39.65
2022-08-03T08:37:59.409Z,38.77
2022-08-03T08:40:32.175Z,39.50
2022-08-03T08:42:59.276Z,38.82
2022-08-03T08:45:26.427Z,38.48
2022-08-03T08:47:59.907Z,38.99
2022-08-03T08:50:28.429Z,38.00
2022-08-03T08:52:59.248Z,38.47
2022-08-03T08:55:26.450Z,38.19
2022-08-03T08:58:05.932Z,38.30
2022-08-03T09:00:32.767Z,37.43
2022-08-03T09:03:01.226Z,37.83
2022-08-03T09:05:53.959Z,37.94
2022-08-03T09:08:17.485Z,38.28
2022-08-03T09:10:44.659Z,38.22
2022-08-03T09:13:11.779Z,38.48
2022-08-03T09:15:38.351Z,38.27
2022-08-03T09:18:04.986Z,38.34
2022-08-03T09:20:34.167Z,38.53
2022-08-03T09:23:09.679Z,38.01
2022-08-03T09:25:59.893Z,37.60
2022-08-03T09:29:01.337Z,37.56
2022-08-03T09:31:30.518Z,37.96
2022-08-03T09:33:58.190Z,37.06
2022-08-03T09:36:47.010Z,37.09
2022-08-03T09:39:42.178Z,37.13
2022-08-03T09:42:15.620Z,37.05
2022-08-03T09:44:44.723Z,36.41
2022-08-03T09:47:13.638Z,36.33
2022-08-03T09:49:42.102Z,35.92
2022-08-03T09:52:33.708Z,36.05
2022-08-03T09:56:05.191Z,35.85
2022-08-03T09:58:08.739Z,35.00
2022-08-03T10:01:07.538Z,34.69
2022-08-03T10:04:03.857Z,34.61
2022-08-03T10:06:31.954Z,34.92
2022-08-03T10:09:15.716Z,34.77
2022-08-03T10:11:44.109Z,35.09
2022-08-03T10:14:12.722Z,34.43
2022-08-03T10:16:40.550Z,33.98
2022-08-03T10:19:08.405Z,33.74
2022-08-03T10:21:38.417Z,33.89
2022-08-03T10:24:07.894Z,33.91
2022-08-03T10:26:36.479Z,33.64
2022-08-03T10:29:07.406Z,33.23
2022-08-03T10:31:57.526Z,33.05
2022-08-03T10:34:34.519Z,33.77
2022-08-03T10:37:09.915Z,33.42
2022-08-03T10:39:36.425Z,33.33
2022-08-03T10:42:05.476Z,33.15
2022-08-03T10:44:42.442Z,32.93
2022-08-03T10:47:11.070Z,33.49
2022-08-03T10:49:38.579Z,33.20
2022-08-03T10:52:12.996Z,32.22
2022-08-03T10:54:53.083Z,32.40
2022-08-03T10:57:52.444Z,32.65
2022-08-03T11:00:24.954Z,32.38
2022-08-03T11:03:12.642Z,32.42
2022-08-03T11:05:41.954Z,31.57
2022-08-03T11:08:23.603Z,30.93
2022-08-03T11:10:53.124Z,30.86
2022-08-03T11:13:22.799Z,30.51
2022-08-03T11:15:52.621Z,31.93
2022-08-03T11:18:19.693Z,31.76
2022-08-03T11:20:52.949Z,31.76
2022-08-03T11:24:02.759Z,31.01
2022-08-03T11:26:26.868Z,30.05
2022-08-03T11:28:53.395Z,30.74
2022-08-03T11:31:48.103Z,30.50
2022-08-03T11:34:12.008Z,30.53
2022-08-03T11:37:16.377Z,30.22
2022-08-03T11:39:45.885Z,29.74
2022-08-03T11:42:24.565Z,30.24
2022-08-03T11:44:54.186Z,29.77
2022-08-03T11:47:22.654Z,30.39
2022-08-03T11:49:50.689Z,29.15
2022-08-03T11:52:18.154Z,29.71
2022-08-03T11:54:45.401Z,29.12
2022-08-03T11:59:01.814Z,29.30
2022-08-03T12:00:29.377Z,29.63
2022-08-03T12:03:10.026Z,29.00
2022-08-03T12:05:37.875Z,29.07
2022-08-03T12:08:07.281Z,29.06
2022-08-03T12:10:34.690Z,29.05
2022-08-03T12:13:03.063Z,28.86
2022-08-03T12:15:32.458Z,28.56
2022-08-03T12:17:59.273Z,28.47
2022-08-03T12:20:34.506Z,28.71
2022-08-03T12:23:04.546Z,28.56
2022-08-03T12:25:39.223Z,28.58
2022-08-03T12:28:37.043Z,28.99
2022-08-03T12:31:02.535Z,29.33
2022-08-03T12:33:29.074Z,28.99
2022-08-03T12:36:05.783Z,28.26
2022-08-03T12:38:39.698Z,28.92
2022-08-03T12:41:11.207Z,28.52
2022-08-03T12:43:39.672Z,28.12
2022-08-03T12:46:13.864Z,27.80
2022-08-03T12:49:06.706Z,27.86
2022-08-03T12:51:56.214Z,27.24
2022-08-03T12:54:25.327Z,26.08
2022-08-03T12:57:15.882Z,26.41
2022-08-03T12:59:53.134Z,26.27
2022-08-03T13:02:24.375Z,25.13
2022-08-03T13:04:53.098Z,25.31
2022-08-03T13:07:21.448Z,25.22
2022-08-03T13:09:51.162Z,24.35
2022-08-03T13:12:21.150Z,24.45
2022-08-03T13:14:50.850Z,25.79
2022-08-03T13:17:18.440Z,26.48
2022-08-03T13:19:46.437Z,26.02
2022-08-03T13:22:15.940Z,24.08
2022-08-03T13:24:44.040Z,23.88
2022-08-03T13:28:01.558Z,21.39
2022-08-03T13:29:58.766Z,21.11
2022-08-03T13:32:25.318Z,21.23
2022-08-03T13:34:51.928Z,19.39
2022-08-03T13:37:18.428Z,19.57
2022-08-03T13:39:58.024Z,18.29
2022-08-03T13:42:31.405Z,17.50
2022-08-03T13:44:58.668Z,17.28
2022-08-03T13:47:26.519Z,14.54
2022-08-03T13:49:59.830Z,16.01
2022-08-03T13:52:34.329Z,16.42
2022-08-03T13:55:02.182Z,15.65
2022-08-03T13:58:04.028Z,15.54
2022-08-03T14:00:26.096Z,15.02
2022-08-03T14:02:57.258Z,14.61
2022-08-03T14:05:29.144Z,14.52
2022-08-03T14:07:58.710Z,14.12
2022-08-03T14:10:35.505Z,14.97
2022-08-03T14:13:02.124Z,14.70
2022-08-03T14:15:28.758Z,14.83
2022-08-03T14:17:55.927Z,14.43
2022-08-03T14:20:37.972Z,14.34
2022-08-03T14:23:07.287Z,14.16
2022-08-03T14:25:44.220Z,14.48
2022-08-03T14:28:22.504Z,14.47
2022-08-03T14:30:50.516Z,14.89
2022-08-03T14:33:17.006Z,15.02
2022-08-03T14:35:43.707Z,14.61
2022-08-03T14:38:10.194Z,14.69
2022-08-03T14:40:37.009Z,14.96
2022-08-03T14:43:03.556Z,14.91
2022-08-03T14:45:30.297Z,14.24
2022-08-03T14:50:30.725Z,14.12
2022-08-03T14:50:50.262Z,14.40
2022-08-03T14:53:18.256Z,14.74
2022-08-03T14:55:50.419Z,15.02
2022-08-03T14:58:20.904Z,14.95
2022-08-03T15:00:49.789Z,14.07
2022-08-03T15:03:17.407Z,13.91
2022-08-03T15:05:44.417Z,12.93
2022-08-03T15:08:11.043Z,13.54
2022-08-03T15:10:40.638Z,13.26
2022-08-03T15:13:12.902Z,12.31
2022-08-03T15:15:39.710Z,11.97
2022-08-03T15:18:06.669Z,12.60
2022-08-03T15:20:43.936Z,12.80
2022-08-03T15:23:12.810Z,12.82
2022-08-03T15:26:02.348Z,13.12
2022-08-03T15:28:26.163Z,12.98
2022-08-03T15:30:52.946Z,13.41
2022-08-03T15:33:19.561Z,13.44
2022-08-03T15:35:46.035Z,13.06
2022-08-03T15:38:13.071Z,13.23
2022-08-03T15:40:39.550Z,12.86
2022-08-03T15:43:06.357Z,13.17
2022-08-03T15:45:35.361Z,13.02
2022-08-03T15:48:04.271Z,13.20
2022-08-03T15:50:30.867Z,13.17
2022-08-03T15:52:57.419Z,13.11
2022-08-03T15:55:23.983Z,13.59
2022-08-03T15:59:03.571Z,13.72
2022-08-03T16:00:37.898Z,13.48
2022-08-03T16:03:04.616Z,13.41
2022-08-03T16:05:31.381Z,13.41
2022-08-03T16:08:03.076Z,13.44
2022-08-03T16:10:32.296Z,13.52
2022-08-03T16:12:59.048Z,13.25
2022-08-03T16:15:25.809Z,13.43
2022-08-03T16:17:52.416Z,13.27
2022-08-03T16:20:31.686Z,13.45
2022-08-03T16:23:09.154Z,13.27
2022-08-03T16:25:42.511Z,13.14
2022-08-03T16:28:14.183Z,13.21
2022-08-03T16:30:43.711Z,13.19
2022-08-03T16:33:16.694Z,12.97
2022-08-03T16:35:45.596Z,13.19
2022-08-03T16:38:16.769Z,12.52
2022-08-03T16:40:45.756Z,12.51
2022-08-03T16:43:18.339Z,12.89
2022-08-03T16:45:47.099Z,12.84
2022-08-03T16:48:20.543Z,13.07
2022-08-03T16:50:47.993Z,13.14
2022-08-03T16:53:16.439Z,13.02
2022-08-03T16:55:53.433Z,12.85
2022-08-03T16:58:41.483Z,13.10
2022-08-03T17:01:22.299Z,13.13
2022-08-03T17:04:02.341Z,12.39
2022-08-03T17:06:35.456Z,12.53
2022-08-03T17:09:10.628Z,12.60
2022-08-03T17:11:39.039Z,12.53
2022-08-03T17:14:12.532Z,12.77
2022-08-03T17:16:40.362Z,12.71
2022-08-03T17:19:23.093Z,13.11
2022-08-03T17:21:58.030Z,13.13
2022-08-03T17:24:35.458Z,13.15
2022-08-03T17:28:41.779Z,13.32
2022-08-03T17:30:07.787Z,13.32
2022-08-03T17:32:37.099Z,13.35
2022-08-03T17:35:10.556Z,13.42
2022-08-03T17:37:57.947Z,13.46
2022-08-03T17:40:24.358Z,13.41
2022-08-03T17:42:52.449Z,13.71
2022-08-03T17:45:19.881Z,13.89
2022-08-03T17:47:57.768Z,13.62
2022-08-03T17:53:29.444Z,13.68
2022-08-03T17:56:38.843Z,13.76
2022-08-03T17:59:51.057Z,14.19
2022-08-03T18:02:58.078Z,14.00
2022-08-03T18:06:10.862Z,14.17
2022-08-03T18:08:26.953Z,14.00
2022-08-03T18:11:09.694Z,14.34
2022-08-03T18:13:57.553Z,14.92
2022-08-03T18:16:31.401Z,15.13
2022-08-03T18:19:01.133Z,15.26
2022-08-03T18:22:03.397Z,16.09
2022-08-03T18:24:24.907Z,16.82
2022-08-03T18:26:53.995Z,17.25
2022-08-03T18:29:21.912Z,17.89
2022-08-03T18:32:02.561Z,18.09
2022-08-03T18:34:33.599Z,18.83
2022-08-03T18:37:01.203Z,19.17
2022-08-03T18:39:49.589Z,19.57
2022-08-03T18:42:19.574Z,19.90
2022-08-03T18:44:54.443Z,20.49
2022-08-03T18:47:51.692Z,20.40
2022-08-03T18:50:31.717Z,20.65
2022-08-03T18:53:03.041Z,21.09
2022-08-03T18:55:38.379Z,21.45
2022-08-03T18:58:40.799Z,21.89
2022-08-03T19:02:00.661Z,22.07
2022-08-03T19:04:19.130Z,22.20
2022-08-03T19:07:00.651Z,22.72
2022-08-03T19:09:34.735Z,23.12
2022-08-03T19:12:13.126Z,23.15
2022-08-03T19:14:56.713Z,23.14
2022-08-03T19:17:29.460Z,23.59
2022-08-03T19:19:58.157Z,23.74
2022-08-03T19:22:25.492Z,23.70
2022-08-03T19:24:54.710Z,24.05
2022-08-03T19:27:26.799Z,23.94
2022-08-03T19:29:58.384Z,24.19
2022-08-03T19:32:32.363Z,25.01
2022-08-03T19:35:01.847Z,24.79
2022-08-03T19:37:38.237Z,24.87
2022-08-03T19:40:10.398Z,25.38
2022-08-03T19:42:44.261Z,25.49
2022-08-03T19:45:17.026Z,25.16
2022-08-03T19:47:54.973Z,25.88
2022-08-03T19:50:21.493Z,25.88
2022-08-03T19:52:49.462Z,25.80
2022-08-03T19:55:17.554Z,25.94
2022-08-03T19:57:49.340Z,26.35
2022-08-03T20:00:17.942Z,27.01
2022-08-03T20:02:45.271Z,26.31
2022-08-03T20:05:15.280Z,27.29
2022-08-03T20:07:48.219Z,27.27
2022-08-03T20:10:16.877Z,27.70
2022-08-03T20:12:47.713Z,28.02
2022-08-03T20:15:18.260Z,28.60
2022-08-03T20:17:55.074Z,28.39
2022-08-03T20:20:33.467Z,28.52
2022-08-03T20:23:10.016Z,28.61
2022-08-03T20:25:55.706Z,28.07
2022-08-03T20:28:50.712Z,28.05
2022-08-03T20:31:23.817Z,28.12
2022-08-03T20:34:00.242Z,28.15
2022-08-03T20:36:27.497Z,27.97
2022-08-03T20:38:58.018Z,27.76
2022-08-03T20:41:25.238Z,27.49
2022-08-03T20:43:51.753Z,27.48
2022-08-03T20:46:38.248Z,27.66
2022-08-03T20:49:06.785Z,27.42
2022-08-03T20:51:49.585Z,27.32
2022-08-03T20:54:28.581Z,27.42
2022-08-03T20:56:56.292Z,27.43
2022-08-03T20:59:23.478Z,27.32
2022-08-03T21:01:50.654Z,27.75
2022-08-03T21:04:21.087Z,27.77
2022-08-03T21:06:59.648Z,27.50
2022-08-03T21:09:39.831Z,27.07
2022-08-03T21:12:17.824Z,27.12
2022-08-03T21:12:55.449Z,14.05
2022-08-03T21:15:02.373Z,27.04
2022-08-03T21:17:40.362Z,27.07
2022-08-03T21:20:11.537Z,27.56
2022-08-03T21:22:42.232Z,27.00
2022-08-03T21:25:10.141Z,27.65
2022-08-03T21:27:37.384Z,27.49
2022-08-03T21:30:10.239Z,27.55
2022-08-03T21:32:36.885Z,27.90
2022-08-03T21:35:03.581Z,27.49
2022-08-03T21:37:30.124Z,27.48
2022-08-03T21:39:56.935Z,27.64
2022-08-03T21:42:24.095Z,27.61
2022-08-03T21:44:53.928Z,27.58
2022-08-03T21:47:25.094Z,27.82
2022-08-03T21:50:07.622Z,28.29
2022-08-03T21:52:42.003Z,28.96
2022-08-03T21:55:08.940Z,28.43
2022-08-03T21:57:51.849Z,28.42
2022-08-03T22:00:22.367Z,28.54
2022-08-03T22:02:54.471Z,29.01
2022-08-03T22:05:28.142Z,29.34
2022-08-03T22:08:10.664Z,29.17
2022-08-03T22:10:37.700Z,29.09
2022-08-03T22:13:04.188Z,29.60
2022-08-03T22:15:31.461Z,29.65
2022-08-03T22:17:59.605Z,29.61
2022-08-03T22:20:26.139Z,29.85
2022-08-03T22:22:56.855Z,29.99
2022-08-03T22:25:28.264Z,29.53
2022-08-03T22:27:55.645Z,29.99
2022-08-03T22:30:22.761Z,29.83
2022-08-03T22:32:52.609Z,29.94
2022-08-03T22:35:21.154Z,29.68
2022-08-03T22:37:57.071Z,30.02
2022-08-03T22:40:23.869Z,29.91
2022-08-03T22:42:51.995Z,30.20
2022-08-03T22:46:08.039Z,30.30
2022-08-03T22:48:07.988Z,30.34
2022-08-03T22:50:35.560Z,30.84
2022-08-03T22:53:02.789Z,31.09
2022-08-03T22:55:30.936Z,31.13
2022-08-03T22:57:57.462Z,30.83
2022-08-03T23:00:24.650Z,31.07
2022-08-03T23:02:54.337Z,31.29
2022-08-03T23:06:00.238Z,31.28
2022-08-03T23:08:14.822Z,31.66
2022-08-03T23:10:47.242Z,31.40
2022-08-03T23:13:18.928Z,31.85
2022-08-03T23:15:56.932Z,31.54
2022-08-03T23:18:24.834Z,31.40
2022-08-03T23:20:52.841Z,31.64
2022-08-03T23:23:20.631Z,31.63
2022-08-03T23:25:50.536Z,31.93
2022-08-03T23:28:18.497Z,32.20
2022-08-03T23:30:47.465Z,32.05
2022-08-03T23:33:16.178Z,32.49
2022-08-03T23:36:20.006Z,32.02
2022-08-03T23:38:35.063Z,32.82
2022-08-03T23:41:03.810Z,32.77
2022-08-03T23:43:44.376Z,32.71
2022-08-03T23:46:21.627Z,32.88
2022-08-03T23:48:48.272Z,33.46
2022-08-03T23:51:30.953Z,32.77
2022-08-03T23:54:17.359Z,32.84
2022-08-03T23:57:15.055Z,33.56
